sensor_id;sensor_type;location;lat;lon;timestamp;temperature;humidity
25138;DHT22;13112;50.986;4.354;2022-08-21T19:04:41;21.90;99.90
25138;DHT22;13112;50.986;4.354;2022-08-21T19:07:07;21.20;99.90
25138;DHT22;13112;50.986;4.354;2022-08-21T19:09:32;21.20;99.90
25138;DHT22;13112;50.986;4.354;2022-08-21T19:11:58;21.40;99.90
25138;DHT22;13112;50.986;4.354;2022-08-21T19:14:24;21.60;99.90
25138;DHT22;13112;50.986;4.354;2022-08-21T19:16:50;21.70;99.90
25138;DHT22;13112;50.986;4.354;2022-08-21T19:19:16;21.80;99.90
25138;DHT22;13112;50.986;4.354;2022-08-21T19:21:42;22.00;99.90
25138;DHT22;13112;50.986;4.354;2022-08-21T19:24:08;22.10;99.90
25138;DHT22;13112;50.986;4.354;2022-08-21T19:26:34;22.20;99.90
25138;DHT22;13112;50.986;4.354;2022-08-21T19:29:05;22.20;99.90
25138;DHT22;13112;50.986;4.354;2022-08-21T19:31:33;22.20;99.90
25138;DHT22;13112;50.986;4.354;2022-08-21T19:34:11;22.20;99.90
25138;DHT22;13112;50.986;4.354;2022-08-21T19:36:38;22.20;99.90
25138;DHT22;13112;50.986;4.354;2022-08-21T19:39:05;22.20;99.90
25138;DHT22;13112;50.986;4.354;2022-08-21T19:41:32;22.20;99.90
25138;DHT22;13112;50.986;4.354;2022-08-21T19:44:03;22.10;99.90
25138;DHT22;13112;50.986;4.354;2022-08-21T19:46:32;22.20;99.90
25138;DHT22;13112;50.986;4.354;2022-08-21T19:49:00;22.20;99.90
25138;DHT22;13112;50.986;4.354;2022-08-21T19:51:26;22.30;99.90
25138;DHT22;13112;50.986;4.354;2022-08-21T19:53:53;22.30;99.90
25138;DHT22;13112;50.986;4.354;2022-08-21T19:56:22;22.30;99.90
25138;DHT22;13112;50.986;4.354;2022-08-21T19:58:48;22.40;99.90
25138;DHT22;13112;50.986;4.354;2022-08-21T20:01:16;22.40;99.90
25138;DHT22;13112;50.986;4.354;2022-08-21T20:03:43;22.50;99.90
25138;DHT22;13112;50.986;4.354;2022-08-21T20:06:09;22.50;99.90
25138;DHT22;13112;50.986;4.354;2022-08-21T20:08:35;22.50;99.90
25138;DHT22;13112;50.986;4.354;2022-08-21T20:11:02;22.50;99.90
25138;DHT22;13112;50.986;4.354;2022-08-21T20:13:29;22.40;99.90
25138;DHT22;13112;50.986;4.354;2022-08-21T20:16:06;22.40;99.90
25138;DHT22;13112;50.986;4.354;2022-08-21T20:18:33;22.40;99.90
25138;DHT22;13112;50.986;4.354;2022-08-21T20:21:00;22.40;99.90
25138;DHT22;13112;50.986;4.354;2022-08-21T20:23:26;22.30;99.90
25138;DHT22;13112;50.986;4.354;2022-08-21T20:25:52;22.20;99.90
25138;DHT22;13112;50.986;4.354;2022-08-21T20:28:18;22.10;99.90
25138;DHT22;13112;50.986;4.354;2022-08-21T20:30:44;22.10;99.90
25138;DHT22;13112;50.986;4.354;2022-08-21T20:33:11;22.00;99.90
25138;DHT22;13112;50.986;4.354;2022-08-21T20:35:37;22.00;99.90
25138;DHT22;13112;50.986;4.354;2022-08-21T20:38:03;21.90;99.90
25138;DHT22;13112;50.986;4.354;2022-08-21T20:40:29;21.80;99.90
25138;DHT22;13112;50.986;4.354;2022-08-21T20:42:55;21.90;99.90
25138;DHT22;13112;50.986;4.354;2022-08-21T20:45:32;21.90;99.90
25138;DHT22;13112;50.986;4.354;2022-08-21T20:48:03;21.90;99.90
25138;DHT22;13112;50.986;4.354;2022-08-21T20:50:33;21.80;99.90
25138;DHT22;13112;50.986;4.354;2022-08-21T20:56:08;21.90;99.90
25138;DHT22;13112;50.986;4.354;2022-08-21T21:01:36;21.80;99.90
25138;DHT22;13112;50.986;4.354;2022-08-21T21:04:07;21.80;99.90
25138;DHT22;13112;50.986;4.354;2022-08-21T21:06:37;21.70;99.90
25138;DHT22;13112;50.986;4.354;2022-08-21T21:09:13;21.70;99.90
25138;DHT22;13112;50.986;4.354;2022-08-21T21:11:47;21.70;99.90
25138;DHT22;13112;50.986;4.354;2022-08-21T21:14:20;21.50;99.90
25138;DHT22;13112;50.986;4.354;2022-08-21T21:17:02;21.50;99.90
25138;DHT22;13112;50.986;4.354;2022-08-21T21:19:47;21.50;99.90
25138;DHT22;13112;50.986;4.354;2022-08-21T21:22:23;21.40;99.90
25138;DHT22;13112;50.986;4.354;2022-08-21T21:24:52;21.40;99.90
25138;DHT22;13112;50.986;4.354;2022-08-21T21:32:59;21.60;99.90
25138;DHT22;13112;50.986;4.354;2022-08-21T21:35:30;21.70;99.90
25138;DHT22;13112;50.986;4.354;2022-08-21T21:38:01;21.60;99.90
25138;DHT22;13112;50.986;4.354;2022-08-21T21:41:00;21.60;99.90
25138;DHT22;13112;50.986;4.354;2022-08-21T21:44:03;21.50;99.90
25138;DHT22;13112;50.986;4.354;2022-08-21T21:52:12;21.30;99.90
25138;DHT22;13112;50.986;4.354;2022-08-21T21:58:40;21.30;99.90
25138;DHT22;13112;50.986;4.354;2022-08-21T22:00:53;21.20;99.90
25138;DHT22;13112;50.986;4.354;2022-08-21T22:03:25;21.10;99.90
25138;DHT22;13112;50.986;4.354;2022-08-21T22:06:17;21.10;99.90
25138;DHT22;13112;50.986;4.354;2022-08-21T22:09:05;20.90;99.90
25138;DHT22;13112;50.986;4.354;2022-08-21T22:14:33;20.90;99.90
25138;DHT22;13112;50.986;4.354;2022-08-21T22:19:51;20.80;99.90
25138;DHT22;13112;50.986;4.354;2022-08-21T22:22:23;20.80;99.90
25138;DHT22;13112;50.986;4.354;2022-08-21T22:24:53;20.80;99.90
25138;DHT22;13112;50.986;4.354;2022-08-21T22:27:30;20.70;99.90
25138;DHT22;13112;50.986;4.354;2022-08-21T22:30:00;20.80;99.90
25138;DHT22;13112;50.986;4.354;2022-08-21T22:32:37;20.80;99.90
25138;DHT22;13112;50.986;4.354;2022-08-21T22:35:24;20.70;99.90
25138;DHT22;13112;50.986;4.354;2022-08-21T22:37:51;20.70;99.90
25138;DHT22;13112;50.986;4.354;2022-08-21T22:40:33;20.60;99.90
25138;DHT22;13112;50.986;4.354;2022-08-21T22:43:21;20.60;99.90
25138;DHT22;13112;50.986;4.354;2022-08-21T22:48:24;20.60;99.90
25138;DHT22;13112;50.986;4.354;2022-08-21T22:51:05;20.60;99.90
25138;DHT22;13112;50.986;4.354;2022-08-21T22:53:34;20.60;99.90
25138;DHT22;13112;50.986;4.354;2022-08-21T22:56:04;20.50;99.90
25138;DHT22;13112;50.986;4.354;2022-08-21T22:58:54;20.40;99.90
25138;DHT22;13112;50.986;4.354;2022-08-21T23:03:55;20.30;99.90
25138;DHT22;13112;50.986;4.354;2022-08-21T23:06:33;20.30;99.90
25138;DHT22;13112;50.986;4.354;2022-08-21T23:09:00;20.30;99.90
25138;DHT22;13112;50.986;4.354;2022-08-21T23:11:38;20.20;99.90
25138;DHT22;13112;50.986;4.354;2022-08-21T23:14:05;20.20;99.90
25138;DHT22;13112;50.986;4.354;2022-08-21T23:22:25;20.20;99.90
25138;DHT22;13112;50.986;4.354;2022-08-21T23:31:13;20.10;99.90
25138;DHT22;13112;50.986;4.354;2022-08-21T23:34:01;20.10;99.90
25138;DHT22;13112;50.986;4.354;2022-08-21T23:36:42;20.10;99.90
25138;DHT22;13112;50.986;4.354;2022-08-21T23:42:07;20.00;99.90
25138;DHT22;13112;50.986;4.354;2022-08-21T23:47:49;19.80;99.90
25138;DHT22;13112;50.986;4.354;2022-08-21T23:50:27;19.80;99.90
25138;DHT22;13112;50.986;4.354;2022-08-21T23:53:20;19.80;99.90
25138;DHT22;13112;50.986;4.354;2022-08-21T23:56:03;19.80;99.90
